Time;durP1;ratioP1;P1;durP2;ratioP2;P2;SDS_P1;SDS_P2;PMS_P1;PMS_P2;Temp;Humidity;BMP_temperature;BMP_pressure;BME280_temperature;BME280_humidity;BME280_pressure;Samples;Min_cycle;Max_cycle;Signal;HPM_P1;HPM_P2
2023/08/01 00:00:03;;;;;;;3.03;2.23;;;;;;;19.18;85.00;97757.06;5157955;27;42111;-76
2023/08/01 00:02:42;;;;;;;2.47;1.73;;;;;;;19.16;84.72;97745.69;5158534;27;41640;-76
2023/08/01 00:05:11;;;;;;;3.10;2.27;;;;;;;19.14;85.21;97736.13;5140611;27;42385;-76
2023/08/01 00:07:38;;;;;;;2.43;1.90;;;;;;;19.11;85.83;97728.44;5158073;27;41220;-76
2023/08/01 00:10:06;;;;;;;3.30;1.87;;;;;;;19.11;85.26;97723.91;5175979;27;41881;-77
2023/08/01 00:12:34;;;;;;;3.10;2.00;;;;;;;19.12;85.85;97730.09;5157102;27;42514;-77
2023/08/01 00:15:02;;;;;;;4.63;2.40;;;;;;;19.09;86.41;97725.91;5156952;27;42001;-77
2023/08/01 00:17:30;;;;;;;2.00;1.80;;;;;;;19.07;86.34;97722.56;5139731;27;42221;-77
2023/08/01 00:19:59;;;;;;;3.60;1.80;;;;;;;19.09;86.81;97715.19;5156948;27;41308;-76
2023/08/01 00:22:26;;;;;;;2.03;1.80;;;;;;;19.06;86.92;97717.38;5156718;27;40726;-76
2023/08/01 00:24:54;;;;;;;3.73;2.50;;;;;;;19.04;86.96;97711.38;5139270;27;42762;-76
2023/08/01 00:27:21;;;;;;;3.40;2.20;;;;;;;19.02;87.31;97698.97;5175408;27;42055;-76
2023/08/01 00:29:49;;;;;;;4.00;2.17;;;;;;;18.89;87.25;97674.56;5156701;27;40797;-76
2023/08/01 00:32:16;;;;;;;3.03;2.17;;;;;;;19.05;87.06;97699.59;5139239;27;40665;-77
2023/08/01 00:34:45;;;;;;;3.27;2.03;;;;;;;19.05;87.38;97686.19;5175370;27;42805;-77
2023/08/01 00:37:14;;;;;;;3.17;2.10;;;;;;;18.97;87.91;97660.25;5156545;27;42462;-77
2023/08/01 00:39:41;;;;;;;4.13;2.60;;;;;;;19.08;87.76;97675.09;5175419;27;41035;-77
2023/08/01 00:42:08;;;;;;;4.60;2.33;;;;;;;19.08;88.03;97672.41;5140003;27;42080;-77
2023/08/01 00:44:36;;;;;;;4.10;2.03;;;;;;;19.08;88.38;97669.75;5175251;27;42566;-78
2023/08/01 00:47:04;;;;;;;3.00;2.33;;;;;;;19.02;88.49;97661.41;5140105;27;41071;-78
2023/08/01 00:49:31;;;;;;;4.60;2.23;;;;;;;19.00;88.53;97655.38;5140286;27;41135;-77
2023/08/01 00:51:59;;;;;;;3.57;2.00;;;;;;;18.67;90.04;97602.94;5139789;27;42139;-77
2023/08/01 00:54:30;;;;;;;3.70;2.30;;;;;;;18.79;90.27;97617.59;5140234;27;43135;-76
2023/08/01 00:56:58;;;;;;;3.10;2.17;;;;;;;18.79;91.20;97628.31;5156354;27;42070;-78
2023/08/01 00:59:25;;;;;;;4.70;2.20;;;;;;;18.74;91.60;97613.81;5139677;27;39959;-77
2023/08/01 01:02:00;;;;;;;2.60;2.13;;;;;;;18.74;92.11;97629.91;5139687;27;41062;-76
2023/08/01 01:04:28;;;;;;;2.80;2.00;;;;;;;18.74;92.58;97614.63;5140076;27;41763;-77
2023/08/01 01:07:01;;;;;;;2.57;2.17;;;;;;;18.73;93.16;97612.97;5139837;27;41373;-78
2023/08/01 01:09:32;;;;;;;2.60;2.07;;;;;;;18.74;92.55;97603.91;5139379;27;39667;-77
2023/08/01 01:12:00;;;;;;;2.63;2.17;;;;;;;18.73;93.62;97599.56;5137978;27;41578;-77
2023/08/01 01:14:28;;;;;;;3.27;1.80;;;;;;;18.72;93.50;97595.19;5138627;27;41932;-77
2023/08/01 01:16:56;;;;;;;2.67;1.80;;;;;;;18.64;93.29;97573.81;5138416;27;41609;-78
2023/08/01 01:19:23;;;;;;;3.13;2.10;;;;;;;18.58;93.02;97566.47;5138457;27;41303;-77
2023/08/01 01:21:53;;;;;;;2.90;2.10;;;;;;;18.68;93.14;97583.16;5138344;27;40620;-77
2023/08/01 01:24:28;;;;;;;2.47;1.93;;;;;;;18.69;92.75;97579.47;5155868;27;43265;-77
2023/08/01 01:26:59;;;;;;;3.33;2.20;;;;;;;18.72;92.89;97581.78;5155651;27;42348;-77
2023/08/01 01:29:28;;;;;;;3.27;2.60;;;;;;;18.69;92.54;97574.09;5171197;27;41820;-77
2023/08/01 01:31:56;;;;;;;6.10;2.40;;;;;;;18.36;93.03;97522.50;5138589;27;42083;-77
2023/08/01 01:34:24;;;;;;;3.50;2.30;;;;;;;18.69;93.23;97558.00;5155744;27;43042;-77
2023/08/01 01:36:53;;;;;;;3.23;2.10;;;;;;;18.70;93.31;97559.69;5138087;27;41135;-77
2023/08/01 01:39:21;;;;;;;3.17;2.13;;;;;;;18.68;93.65;97550.97;5173018;27;40927;-77
2023/08/01 01:41:49;;;;;;;2.73;1.73;;;;;;;18.69;93.66;97547.28;5156428;27;41569;-77
2023/08/01 01:44:16;;;;;;;2.77;2.00;;;;;;;18.72;92.84;97557.66;5156697;27;42775;-78
2023/08/01 01:46:44;;;;;;;2.57;2.00;;;;;;;18.72;93.26;97546.94;5156677;27;42200;-77
2023/08/01 01:49:11;;;;;;;3.73;2.20;;;;;;;18.69;93.98;97547.28;5138956;27;41163;-77
2023/08/01 01:51:39;;;;;;;4.73;2.03;;;;;;;18.69;93.60;97552.63;5156224;27;41655;-77
2023/08/01 01:54:08;;;;;;;3.77;2.67;;;;;;;18.47;93.67;97511.38;5173416;27;43483;-77
2023/08/01 01:56:35;;;;;;;3.27;2.00;;;;;;;18.70;93.53;97542.75;5155077;27;41421;-77
2023/08/01 01:59:03;;;;;;;2.93;1.87;;;;;;;18.70;93.72;97548.13;5154957;27;42131;-78
2023/08/01 02:01:31;;;;;;;2.93;2.20;;;;;;;18.70;93.86;97540.91;5138558;27;40690;-78
2023/08/01 02:03:58;;;;;;;2.87;1.67;;;;;;;18.74;93.10;97536.03;5172308;27;44000;-78
2023/08/01 02:06:26;;;;;;;2.90;2.00;;;;;;;18.66;93.61;97510.13;5174006;27;43124;-77
2023/08/01 02:08:53;;;;;;;3.77;2.13;;;;;;;18.71;94.23;97523.81;5137880;27;41236;-78
2023/08/01 02:11:23;;;;;;;2.60;2.20;;;;;;;18.67;94.75;97517.13;5155448;27;40955;-77
2023/08/01 02:13:50;;;;;;;3.27;2.10;;;;;;;18.61;94.86;97507.97;5155075;27;42697;-77
2023/08/01 02:16:17;;;;;;;4.67;2.20;;;;;;;18.64;94.74;97512.97;5138048;27;41310;-77
2023/08/01 02:18:45;;;;;;;2.00;1.70;;;;;;;18.69;94.62;97519.63;5155239;27;41336;-77
2023/08/01 02:21:13;;;;;;;2.73;2.00;;;;;;;18.71;94.27;97510.41;5154905;27;41726;-78
2023/08/01 02:23:40;;;;;;;1.83;1.63;;;;;;;18.73;94.18;97516.41;5154310;27;43672;-77
2023/08/01 02:26:08;;;;;;;2.27;1.93;;;;;;;18.76;93.90;97504.50;5154889;27;41939;-77
2023/08/01 02:28:37;;;;;;;3.07;1.73;;;;;;;18.76;93.75;97510.69;5137754;27;39632;-77
2023/08/01 02:31:05;;;;;;;2.77;1.90;;;;;;;18.79;94.15;97509.50;5137657;27;40527;-78
2023/08/01 02:33:32;;;;;;;3.57;2.40;;;;;;;18.48;94.22;97447.88;5154696;27;41664;-77
2023/08/01 02:36:00;;;;;;;4.37;2.77;;;;;;;18.77;94.68;97496.28;5155073;27;42549;-78
2023/08/01 02:38:27;;;;;;;3.77;2.00;;;;;;;18.76;94.02;97499.97;5154866;27;40995;-76
2023/08/01 02:40:55;;;;;;;2.93;2.00;;;;;;;18.76;94.61;97489.25;5155397;27;41547;-77
2023/08/01 02:43:22;;;;;;;2.43;1.90;;;;;;;18.76;94.62;97485.72;5155714;27;42616;-77
2023/08/01 02:45:51;;;;;;;3.40;2.03;;;;;;;18.77;94.95;97485.56;5138543;27;42147;-76
2023/08/01 02:48:19;;;;;;;2.67;2.23;;;;;;;18.70;95.38;97468.50;5174313;27;41854;-78
2023/08/01 02:50:48;;;;;;;3.07;2.23;;;;;;;18.72;95.36;97471.84;5138271;27;41704;-77
2023/08/01 02:53:15;;;;;;;3.60;2.20;;;;;;;18.69;95.87;97452.59;5155525;27;43491;-77
2023/08/01 02:55:45;;;;;;;2.40;2.20;;;;;;;18.63;97.25;97446.13;5155786;27;41405;-77
2023/08/01 02:58:13;;;;;;;3.17;2.10;;;;;;;18.60;97.37;97430.38;5155087;27;41024;-77
2023/08/01 03:00:40;;;;;;;2.60;1.87;;;;;;;18.57;97.55;97433.38;5155837;27;40945;-78
2023/08/01 03:03:10;;;;;;;2.33;1.93;;;;;;;18.50;97.43;97402.97;5140298;27;41777;-77
2023/08/01 03:05:38;;;;;;;3.30;2.40;;;;;;;18.57;97.00;97406.56;5139906;27;42257;-76
2023/08/01 03:08:06;;;;;;;3.70;2.30;;;;;;;18.56;97.14;97397.69;5158213;27;40922;-76
2023/08/01 03:10:33;;;;;;;3.63;2.17;;;;;;;18.55;98.08;97389.81;5157981;27;42708;-79
2023/08/01 03:13:01;;;;;;;4.40;2.30;;;;;;;18.51;98.38;97385.88;5140795;27;41689;-76
2023/08/01 03:15:29;;;;;;;2.80;1.93;;;;;;;18.54;97.77;97382.81;5175814;27;43227;-77
2023/08/01 03:17:57;;;;;;;4.30;2.20;;;;;;;18.54;98.79;97390.88;5140287;27;39870;-78
2023/08/01 03:20:26;;;;;;;3.63;2.13;;;;;;;18.49;98.95;97371.81;5158141;27;41537;-77
2023/08/01 03:22:54;;;;;;;2.50;2.27;;;;;;;18.49;98.93;97375.31;5140312;27;41814;-77
2023/08/01 03:25:22;;;;;;;2.30;2.10;;;;;;;18.49;99.15;97385.22;5140764;27;41273;-77
2023/08/01 03:27:49;;;;;;;2.70;2.30;;;;;;;18.42;98.89;97378.91;5158015;27;41824;-77
2023/08/01 03:30:17;;;;;;;4.50;2.00;;;;;;;18.36;99.82;97376.94;5176285;27;41836;-77
2023/08/01 03:32:44;;;;;;;3.60;2.43;;;;;;;18.40;99.35;97391.66;5140383;27;41697;-77
2023/08/01 03:35:13;;;;;;;3.63;2.13;;;;;;;18.43;99.63;97381.38;5175482;27;43338;-77
2023/08/01 03:37:43;;;;;;;3.00;2.30;;;;;;;18.47;99.43;97392.59;5140544;27;40148;-78
2023/08/01 03:40:11;;;;;;;2.43;1.97;;;;;;;18.46;99.66;97373.00;5140871;27;40782;-77
2023/08/01 03:42:38;;;;;;;2.20;2.00;;;;;;;18.45;99.81;97381.22;5158594;27;42948;-78
2023/08/01 03:45:07;;;;;;;3.23;2.23;;;;;;;18.47;99.95;97365.78;5158912;27;42278;-77
2023/08/01 03:47:35;;;;;;;2.13;1.90;;;;;;;18.48;99.95;97360.25;5158664;27;41949;-78
2023/08/01 03:50:03;;;;;;;3.13;2.00;;;;;;;18.47;100.00;97360.44;5141119;27;40692;-77
2023/08/01 03:52:30;;;;;;;2.27;1.70;;;;;;;18.42;99.96;97352.13;5140926;27;41766;-77
2023/08/01 03:54:59;;;;;;;2.30;1.90;;;;;;;18.37;99.96;97339.25;5158438;27;41131;-77
2023/08/01 03:57:26;;;;;;;3.97;2.47;;;;;;;18.45;100.00;97355.25;5158400;27;41672;-77
2023/08/01 03:59:54;;;;;;;3.73;2.03;;;;;;;18.43;99.98;97343.88;5158283;27;41809;-77
2023/08/01 04:02:21;;;;;;;2.73;2.07;;;;;;;18.48;100.00;97368.28;5175803;27;42699;-78
2023/08/01 04:04:49;;;;;;;4.60;2.20;;;;;;;18.49;100.00;97363.75;5158278;27;42401;-78
2023/08/01 04:07:16;;;;;;;2.53;2.20;;;;;;;18.50;100.00;97360.06;5140494;27;41005;-77
2023/08/01 04:09:44;;;;;;;2.73;2.10;;;;;;;18.50;100.00;97366.25;5174385;27;41814;-77
2023/08/01 04:12:13;;;;;;;2.77;2.00;;;;;;;18.52;100.00;97366.09;5156380;27;41774;-77
2023/08/01 04:14:41;;;;;;;4.47;2.53;;;;;;;18.51;100.00;97373.28;5156729;27;42392;-77
2023/08/01 04:17:08;;;;;;;2.47;2.27;;;;;;;18.54;100.00;97374.78;5156911;27;39971;-77
2023/08/01 04:19:36;;;;;;;3.50;2.70;;;;;;;18.55;100.00;97368.38;5139919;27;42083;-77
2023/08/01 04:22:04;;;;;;;2.47;2.27;;;;;;;18.53;100.00;97365.06;5174282;27;42560;-77
2023/08/01 04:24:31;;;;;;;2.90;2.60;;;;;;;18.52;100.00;97358.88;5175554;27;43179;-77
2023/08/01 04:26:59;;;;;;;4.50;2.47;;;;;;;18.49;100.00;97358.41;5138772;27;40178;-79
2023/08/01 04:29:28;;;;;;;2.97;2.40;;;;;;;18.52;100.00;97358.03;5156864;27;42109;-77
2023/08/01 04:31:55;;;;;;;2.63;2.30;;;;;;;18.54;100.00;97350.66;5156378;27;42732;-77
2023/08/01 04:34:23;;;;;;;2.73;2.50;;;;;;;18.56;100.00;97364.69;5139563;27;42247;-77
2023/08/01 04:36:51;;;;;;;3.13;2.70;;;;;;;18.58;100.00;97357.34;5156378;27;39947;-77
2023/08/01 04:39:18;;;;;;;2.77;2.33;;;;;;;18.57;100.00;97355.63;5156937;27;42736;-77
2023/08/01 04:41:46;;;;;;;2.57;2.33;;;;;;;18.59;100.00;97369.72;5157544;27;42810;-77
2023/08/01 04:44:13;;;;;;;2.93;2.63;;;;;;;18.63;100.00;97365.66;5176197;27;43294;-77
2023/08/01 04:46:42;;;;;;;2.10;1.90;;;;;;;18.64;100.00;97362.81;5175081;27;41288;-77
2023/08/01 04:49:10;;;;;;;3.97;2.50;;;;;;;18.66;100.00;97362.63;5157326;27;41712;-78
2023/08/01 04:51:37;;;;;;;3.07;2.30;;;;;;;18.66;100.00;97351.91;5157632;27;43750;-77
2023/08/01 04:54:05;;;;;;;2.90;2.27;;;;;;;18.66;100.00;97349.22;5156974;27;42072;-77
2023/08/01 04:56:32;;;;;;;3.40;2.10;;;;;;;18.63;100.00;97339.69;5157199;27;40788;-77
2023/08/01 04:59:01;;;;;;;3.17;2.00;;;;;;;18.67;100.00;97342.00;5156829;27;40637;-77
2023/08/01 05:01:29;;;;;;;3.60;1.93;;;;;;;18.66;100.00;97338.50;5157378;27;42958;-77
2023/08/01 05:03:58;;;;;;;2.47;1.93;;;;;;;18.59;100.00;97329.50;5139690;27;41546;-77
2023/08/01 05:06:27;;;;;;;2.37;2.13;;;;;;;18.67;100.00;97331.28;5139462;27;39841;-78
2023/08/01 05:08:55;;;;;;;3.00;2.30;;;;;;;18.67;100.00;97338.28;5156412;27;40594;-78
2023/08/01 05:11:22;;;;;;;2.40;1.97;;;;;;;18.66;100.00;97343.88;5155134;27;42886;-77
2023/08/01 05:13:50;;;;;;;2.00;1.80;;;;;;;18.65;100.00;97347.56;5174557;27;43285;-77
2023/08/01 05:16:17;;;;;;;3.57;2.03;;;;;;;18.65;100.00;97340.34;5155526;27;41373;-78
2023/08/01 05:18:45;;;;;;;3.00;1.70;;;;;;;18.56;100.00;97337.88;5155439;27;40635;-78
2023/08/01 05:21:14;;;;;;;1.90;1.70;;;;;;;18.69;100.00;97345.31;5138331;27;42541;-78
2023/08/01 05:23:41;;;;;;;1.73;1.63;;;;;;;18.70;99.60;97344.31;5138276;27;42831;-78
2023/08/01 05:26:09;;;;;;;2.47;1.80;;;;;;;18.68;100.00;97344.50;5154711;27;40202;-78
2023/08/01 05:28:36;;;;;;;2.33;1.90;;;;;;;18.65;100.00;97358.28;5155073;27;42329;-77
2023/08/01 05:31:04;;;;;;;2.10;1.90;;;;;;;18.67;99.43;97366.94;5155908;27;42671;-77
2023/08/01 05:33:31;;;;;;;4.50;1.80;;;;;;;18.67;99.70;97378.50;5174245;27;42268;-77
2023/08/01 05:35:59;;;;;;;2.23;1.90;;;;;;;18.67;99.93;97375.84;5137998;27;40265;-78
2023/08/01 05:38:28;;;;;;;1.93;1.50;;;;;;;18.67;99.91;97377.69;5155635;27;42423;-77
2023/08/01 05:40:55;;;;;;;2.97;1.63;;;;;;;18.65;100.00;97382.41;5155716;27;42622;-78
2023/08/01 05:43:23;;;;;;;1.77;1.40;;;;;;;18.65;99.78;97385.09;5173751;27;43257;-78
2023/08/01 05:45:50;;;;;;;2.30;1.30;;;;;;;18.67;99.67;97384.91;5138892;27;39664;-76
2023/08/01 05:48:18;;;;;;;2.53;2.00;;;;;;;18.63;99.52;97379.06;5139027;27;40916;-77
2023/08/01 05:50:45;;;;;;;3.10;1.77;;;;;;;18.69;99.30;97385.53;5174849;27;44082;-77
2023/08/01 05:53:13;;;;;;;2.63;1.80;;;;;;;18.73;99.65;97390.38;5155719;27;42638;-77
2023/08/01 05:55:42;;;;;;;1.80;1.60;;;;;;;18.72;99.20;97386.03;5138909;27;39827;-78
2023/08/01 05:58:09;;;;;;;3.30;2.10;;;;;;;18.77;99.38;97394.38;5137937;27;40496;-77
2023/08/01 06:00:37;;;;;;;2.10;1.90;;;;;;;18.55;99.55;97365.69;5171569;27;42710;-77
2023/08/01 06:03:04;;;;;;;3.97;1.40;;;;;;;18.76;100.00;97410.63;5155616;27;42839;-77
2023/08/01 06:05:32;;;;;;;2.63;1.83;;;;;;;18.73;100.00;97409.16;5138839;27;41045;-78
2023/08/01 06:07:59;;;;;;;3.20;2.03;;;;;;;18.69;100.00;97410.50;5174207;27;41174;-77
2023/08/01 06:10:27;;;;;;;3.13;1.77;;;;;;;18.61;100.00;97389.97;5171792;27;42915;-83
2023/08/01 06:12:56;;;;;;;2.20;1.80;;;;;;;18.63;100.00;97392.50;5154546;27;43119;-77
2023/08/01 06:15:23;;;;;;;1.90;1.60;;;;;;;18.66;100.00;97370.69;5137736;27;41154;-78
2023/08/01 06:17:51;;;;;;;3.17;1.70;;;;;;;18.45;100.00;97330.28;5154589;27;40805;-77
2023/08/01 06:20:18;;;;;;;2.10;1.73;;;;;;;18.69;100.00;97370.28;5155340;27;42715;-79
2023/08/01 06:22:46;;;;;;;1.37;1.27;;;;;;;18.72;100.00;97359.19;5137594;27;41111;-77
2023/08/01 06:25:13;;;;;;;3.93;2.00;;;;;;;18.71;100.00;97352.16;5172457;27;41760;-78
2023/08/01 06:27:41;;;;;;;1.70;1.50;;;;;;;18.67;100.00;97350.88;5173433;27;41746;-78
2023/08/01 06:30:11;;;;;;;1.80;1.57;;;;;;;18.75;100.00;97347.28;5154672;27;43393;-77
2023/08/01 06:32:38;;;;;;;2.50;1.60;;;;;;;18.81;100.00;97363.47;5137339;27;41300;-81
2023/08/01 06:35:07;;;;;;;2.20;1.70;;;;;;;18.76;100.00;97333.69;5154917;27;41613;-78
2023/08/01 06:37:35;;;;;;;1.80;1.50;;;;;;;18.86;100.00;97357.56;5154131;27;40595;-79
2023/08/01 06:40:03;;;;;;;3.07;1.47;;;;;;;18.82;99.95;97357.06;5138194;27;41905;-81
2023/08/01 06:42:30;;;;;;;2.17;1.30;;;;;;;18.78;99.84;97353.13;5173831;27;43604;-79
2023/08/01 06:44:58;;;;;;;2.37;1.67;;;;;;;18.68;100.00;97333.75;5173575;27;41867;-77
2023/08/01 06:47:26;;;;;;;1.60;1.50;;;;;;;18.77;100.00;97350.63;5137920;27;41006;-78
2023/08/01 06:49:54;;;;;;;1.70;1.17;;;;;;;18.74;100.00;97354.50;5155685;27;41772;-79
2023/08/01 06:52:21;;;;;;;2.70;1.40;;;;;;;18.72;100.00;97361.88;5173159;27;42485;-80
2023/08/01 06:54:49;;;;;;;2.53;1.50;;;;;;;18.73;100.00;97355.50;5155994;27;41249;-79
2023/08/01 06:57:17;;;;;;;2.47;1.43;;;;;;;18.77;100.00;97340.72;5138006;27;40794;-79
2023/08/01 06:59:44;;;;;;;1.30;1.10;;;;;;;18.73;99.94;97342.09;5155464;27;42622;-81
2023/08/01 07:02:12;;;;;;;2.47;1.87;;;;;;;18.82;99.53;97343.66;5155311;27;41652;-79
2023/08/01 07:04:41;;;;;;;1.83;1.60;;;;;;;18.84;98.48;97340.81;5138476;27;40043;-78
2023/08/01 07:07:09;;;;;;;2.13;1.57;;;;;;;18.83;98.70;97323.88;5173676;27;41973;-79
2023/08/01 07:09:37;;;;;;;2.43;1.83;;;;;;;18.79;98.17;97317.22;5171725;27;42437;-77
2023/08/01 07:12:06;;;;;;;2.27;1.70;;;;;;;18.76;98.31;97309.56;5153749;27;43218;-79
2023/08/01 07:14:34;;;;;;;2.30;1.60;;;;;;;18.74;97.92;97340.25;5137343;27;41063;-82
2023/08/01 07:17:01;;;;;;;1.90;1.70;;;;;;;18.73;97.74;97334.06;5137070;27;40726;-80
2023/08/01 07:19:29;;;;;;;4.00;2.07;;;;;;;18.44;97.88;97293.78;5137255;27;41751;-80
2023/08/01 07:21:58;;;;;;;2.13;1.40;;;;;;;18.63;97.96;97334.34;5154347;27;42496;-79
2023/08/01 07:24:25;;;;;;;1.70;1.30;;;;;;;18.65;97.95;97344.88;5154656;27;41736;-79
2023/08/01 07:26:52;;;;;;;2.37;1.60;;;;;;;18.71;98.38;97333.41;5136559;27;40816;-79
2023/08/01 07:29:20;;;;;;;2.13;1.93;;;;;;;18.76;98.06;97352.47;5172946;27;43718;-78
2023/08/01 07:31:48;;;;;;;3.07;1.80;;;;;;;18.80;97.95;97356.44;5172537;27;41964;-79
2023/08/01 07:34:15;;;;;;;1.87;1.50;;;;;;;18.86;98.30;97358.38;5154394;27;41912;-80
2023/08/01 07:36:43;;;;;;;1.90;1.20;;;;;;;18.92;97.59;97352.28;5154619;27;42674;-78
2023/08/01 07:39:12;;;;;;;2.80;1.53;;;;;;;18.96;97.46;97356.25;5172842;27;43378;-78
2023/08/01 07:41:39;;;;;;;1.67;1.27;;;;;;;19.03;97.71;97367.09;5138026;27;42221;-80
2023/08/01 07:44:07;;;;;;;1.47;1.23;;;;;;;19.07;96.86;97362.16;5173999;27;41154;-78
2023/08/01 07:46:34;;;;;;;1.40;1.27;;;;;;;19.10;97.58;97361.81;5173467;27;42906;-79
2023/08/01 07:49:02;;;;;;;1.77;1.20;;;;;;;19.12;96.38;97370.50;5175569;27;43558;-79
2023/08/01 07:51:30;;;;;;;3.63;1.50;;;;;;;19.19;96.16;97371.41;5141561;27;41373;-79
2023/08/01 07:53:58;;;;;;;1.93;1.50;;;;;;;19.19;95.84;97374.09;5176446;27;41083;-79
2023/08/01 07:56:27;;;;;;;1.47;1.30;;;;;;;19.20;95.55;97367.72;5141223;27;40658;-79
2023/08/01 07:58:54;;;;;;;1.03;0.77;;;;;;;19.27;95.32;97363.28;5140130;27;41797;-78
2023/08/01 08:01:22;;;;;;;2.13;1.23;;;;;;;19.38;95.22;97362.81;5177264;27;42993;-78
2023/08/01 08:03:49;;;;;;;2.70;1.23;;;;;;;19.50;94.76;97372.06;5141111;27;39502;-80
2023/08/01 08:06:17;;;;;;;1.37;1.20;;;;;;;19.70;94.43;97367.75;5141211;27;40681;-78
2023/08/01 08:08:44;;;;;;;1.40;1.00;;;;;;;19.91;93.94;97371.47;5157794;27;41574;-79
2023/08/01 08:11:12;;;;;;;1.07;0.93;;;;;;;20.06;93.22;97369.56;5139086;27;42643;-79
2023/08/01 08:13:41;;;;;;;0.80;0.80;;;;;;;20.16;92.82;97375.47;5139946;27;40202;-79
2023/08/01 08:16:09;;;;;;;0.80;0.80;;;;;;;20.22;91.57;97380.06;5176124;27;42223;-81
2023/08/01 08:18:36;;;;;;;1.43;1.00;;;;;;;20.25;90.39;97374.31;5176108;27;42847;-79
2023/08/01 08:21:04;;;;;;;1.13;0.90;;;;;;;20.30;90.16;97371.88;5157000;27;42784;-78
2023/08/01 08:23:31;;;;;;;1.10;1.00;;;;;;;20.26;90.33;97354.47;5140300;27;39929;-79
2023/08/01 08:25:59;;;;;;;1.13;0.83;;;;;;;20.37;89.77;97371.97;5139291;27;40369;-78
2023/08/01 08:28:31;;;;;;;1.33;1.00;;;;;;;20.39;89.75;97369.94;5139375;27;41869;-79
2023/08/01 08:31:01;;;;;;;1.33;0.60;;;;;;;20.35;89.47;97374.84;5156813;27;42756;-82
2023/08/01 08:33:29;;;;;;;1.77;1.00;;;;;;;20.23;89.43;97384.44;5156992;27;41627;-77
2023/08/01 08:35:57;;;;;;;0.70;0.60;;;;;;;20.17;90.63;97378.97;5139516;27;40928;-79
2023/08/01 08:38:24;;;;;;;1.07;0.80;;;;;;;20.21;90.77;97373.03;5175447;27;43996;-80
2023/08/01 08:40:59;;;;;;;1.57;0.83;;;;;;;20.15;91.52;97363.06;5140553;27;41599;-79
2023/08/01 08:43:27;;;;;;;1.33;0.70;;;;;;;20.26;91.23;97380.53;5157237;27;40929;-81
2023/08/01 08:45:58;;;;;;;0.80;0.70;;;;;;;20.20;91.23;97371.38;5157718;27;42165;-81
2023/08/01 08:48:29;;;;;;;0.83;0.60;;;;;;;20.29;89.57;97370.22;5157318;27;41703;-80
2023/08/01 08:50:58;;;;;;;0.90;0.73;;;;;;;20.25;89.57;97357.38;5140523;27;41275;-79
2023/08/01 08:53:26;;;;;;;0.83;0.67;;;;;;;20.36;89.89;97355.00;5176159;27;41874;-79
2023/08/01 08:55:54;;;;;;;0.77;0.60;;;;;;;20.37;89.76;97362.06;5157524;27;40856;-77
2023/08/01 08:58:23;;;;;;;0.70;0.70;;;;;;;20.49;90.03;97364.22;5157271;27;43724;-79
2023/08/01 09:00:50;;;;;;;0.70;0.70;;;;;;;20.50;88.42;97357.81;5175126;27;42518;-79
2023/08/01 09:03:19;;;;;;;1.10;0.80;;;;;;;20.50;88.61;97365.88;5174811;27;40857;-79
2023/08/01 09:05:50;;;;;;;0.63;0.63;;;;;;;20.53;88.23;97349.31;5157651;27;42161;-79
2023/08/01 09:08:20;;;;;;;0.90;0.73;;;;;;;20.68;87.67;97363.53;5156079;27;42913;-80
2023/08/01 09:10:48;;;;;;;0.73;0.70;;;;;;;20.76;87.07;97361.53;5155316;27;41170;-79
2023/08/01 09:13:16;;;;;;;1.90;0.87;;;;;;;20.72;87.55;97370.19;5175090;27;40959;-79
2023/08/01 09:15:44;;;;;;;0.63;0.63;;;;;;;20.59;87.99;97356.63;5138764;27;41700;-80
2023/08/01 09:18:11;;;;;;;0.60;0.60;;;;;;;20.53;88.37;97403.13;5175012;27;42757;-80
2023/08/01 09:20:44;;;;;;;0.97;0.90;;;;;;;20.38;88.59;97412.13;5175039;27;43224;-78
2023/08/01 09:23:13;;;;;;;0.47;0.47;;;;;;;20.07;83.84;97420.44;5138726;27;40137;-79
2023/08/01 09:25:42;;;;;;;0.60;0.50;;;;;;;19.66;82.55;97412.13;5138905;27;41993;-79
2023/08/01 09:28:21;;;;;;;0.70;0.63;;;;;;;19.27;83.37;97416.97;5155625;27;42829;-79
2023/08/01 09:30:49;;;;;;;1.30;0.60;;;;;;;18.99;84.69;97425.66;5139200;27;40771;-81
2023/08/01 09:33:17;;;;;;;1.40;0.57;;;;;;;18.75;84.73;97393.72;5138312;27;39865;-81
2023/08/01 09:35:45;;;;;;;0.67;0.60;;;;;;;18.71;85.64;97397.75;5174863;27;41933;-82
2023/08/01 09:38:15;;;;;;;0.80;0.80;;;;;;;18.53;85.58;97383.84;5155791;27;43079;-79
2023/08/01 09:40:44;;;;;;;0.90;0.60;;;;;;;18.58;85.97;97421.69;5156803;27;41747;-78
2023/08/01 09:43:13;;;;;;;0.77;0.50;;;;;;;18.48;86.60;97415.72;5156898;27;40899;-83
2023/08/01 09:45:51;;;;;;;0.97;0.53;;;;;;;18.39;87.31;97416.78;5157145;27;41775;-80
2023/08/01 09:48:26;;;;;;;0.57;0.57;;;;;;;18.34;87.74;97425.38;5156509;27;41770;-84
2023/08/01 09:51:05;;;;;;;0.93;0.60;;;;;;;18.34;88.18;97429.88;5156699;27;43754;-84
2023/08/01 09:53:36;;;;;;;1.27;0.60;;;;;;;18.37;88.52;97421.50;5139610;27;40149;-79
2023/08/01 09:56:04;;;;;;;1.60;0.70;;;;;;;18.42;88.83;97437.88;5139215;27;41596;-83
2023/08/01 09:58:34;;;;;;;5.30;0.70;;;;;;;18.45;89.16;97440.19;5156468;27;43546;-80
2023/08/01 10:01:02;;;;;;;2.13;0.83;;;;;;;18.55;88.99;97424.69;5139019;27;40923;-82
2023/08/01 10:03:30;;;;;;;1.30;0.50;;;;;;;18.85;88.96;97436.34;5156436;27;40029;-83
2023/08/01 10:05:59;;;;;;;1.80;0.80;;;;;;;19.12;88.65;97442.97;5175506;27;41707;-82
2023/08/01 10:08:27;;;;;;;1.50;0.70;;;;;;;19.44;87.96;97437.22;5175099;27;43735;-81
2023/08/01 10:10:57;;;;;;;2.53;0.60;;;;;;;19.87;87.69;97430.16;5153962;27;43264;-82
2023/08/01 10:13:25;;;;;;;1.10;0.90;;;;;;;20.75;85.82;97423.59;5155460;27;40046;-80
2023/08/01 10:15:53;;;;;;;3.53;0.83;;;;;;;21.46;83.05;97445.84;5174169;27;41766;-82
2023/08/01 10:18:21;;;;;;;1.67;0.60;;;;;;;21.94;81.52;97443.16;5155518;27;43449;-81
2023/08/01 10:20:50;;;;;;;0.87;0.60;;;;;;;22.25;77.38;97426.50;5155900;27;42261;-80
2023/08/01 10:23:18;;;;;;;1.10;0.60;;;;;;;23.19;76.70;97441.50;5155292;27;40910;-81
2023/08/01 10:25:46;;;;;;;1.27;0.63;;;;;;;24.25;72.62;97458.25;5173236;27;41774;-80
2023/08/01 10:28:16;;;;;;;0.60;0.60;;;;;;;25.01;71.09;97451.91;5155238;27;41673;-81
2023/08/01 10:30:43;;;;;;;1.37;0.60;;;;;;;25.47;69.25;97447.94;5155591;27;43225;-80
2023/08/01 10:33:13;;;;;;;0.50;0.50;;;;;;;26.33;65.21;97455.94;5155267;27;40818;-81
2023/08/01 10:35:41;;;;;;;1.40;0.47;;;;;;;27.07;63.61;97468.19;5155193;27;41773;-81
2023/08/01 10:38:09;;;;;;;1.30;0.73;;;;;;;27.06;62.04;97466.53;5155174;27;43708;-81
2023/08/01 10:40:38;;;;;;;0.70;0.60;;;;;;;26.54;59.09;97479.84;5156153;27;42217;-80
2023/08/01 10:43:06;;;;;;;0.50;0.50;;;;;;;25.77;59.21;97484.13;5174653;27;41104;-81
2023/08/01 10:45:35;;;;;;;1.47;0.70;;;;;;;25.20;62.19;97478.00;5139051;27;43501;-80
2023/08/01 10:48:11;;;;;;;1.17;0.70;;;;;;;24.78;64.06;97476.03;5156219;27;42686;-81
2023/08/01 10:50:39;;;;;;;0.93;0.80;;;;;;;24.54;65.21;97467.66;5156512;27;42165;-81
2023/08/01 10:53:08;;;;;;;0.80;0.50;;;;;;;24.44;65.54;97470.00;5155957;27;40390;-81
2023/08/01 10:55:40;;;;;;;1.27;0.70;;;;;;;24.30;66.11;97465.72;5156086;27;40703;-80
2023/08/01 10:58:09;;;;;;;0.90;0.73;;;;;;;24.27;65.61;97471.56;5154271;27;43739;-80
2023/08/01 11:00:38;;;;;;;0.80;0.80;;;;;;;24.34;66.48;97450.72;5138615;27;41386;-79
2023/08/01 11:03:06;;;;;;;0.63;0.63;;;;;;;24.43;66.86;97459.41;5138138;27;40169;-80
2023/08/01 11:05:33;;;;;;;0.53;0.53;;;;;;;24.29;67.05;97464.06;5174654;27;42754;-80
2023/08/01 11:08:02;;;;;;;0.77;0.50;;;;;;;24.56;66.20;97473.69;5155417;27;41915;-80
2023/08/01 11:10:32;;;;;;;1.10;0.60;;;;;;;24.94;65.88;97472.81;5153825;27;42330;-81
2023/08/01 11:13:00;;;;;;;0.63;0.60;;;;;;;25.26;64.54;97463.56;5154195;27;41165;-80
2023/08/01 11:15:28;;;;;;;0.57;0.43;;;;;;;25.50;64.38;97478.13;5154797;27;42562;-80
2023/08/01 11:17:57;;;;;;;0.53;0.40;;;;;;;25.80;64.10;97472.84;5153854;27;41927;-80
2023/08/01 11:20:27;;;;;;;0.60;0.60;;;;;;;26.45;63.33;97475.81;5153820;27;41713;-79
2023/08/01 11:22:57;;;;;;;1.03;0.70;;;;;;;26.79;61.54;97472.38;5154554;27;41180;-79
2023/08/01 11:25:35;;;;;;;0.50;0.50;;;;;;;26.76;59.94;97475.53;5176712;27;42734;-79
2023/08/01 11:28:06;;;;;;;0.70;0.60;;;;;;;27.32;59.22;97498.72;5175084;27;43491;-79
2023/08/01 11:30:33;;;;;;;0.83;0.83;;;;;;;27.77;59.22;97501.69;5158162;27;41870;-79
2023/08/01 11:33:05;;;;;;;0.67;0.67;;;;;;;28.37;58.42;97503.22;5157592;27;39947;-78
2023/08/01 11:35:32;;;;;;;0.83;0.60;;;;;;;28.89;55.09;97517.59;5157780;27;40388;-79